LPST

Details ICAO LPST
Name SINTRA
Region Portugal
Timezone Europe/Lisbon (UTC+0.0)
Plans Departing 10
Arriving 7
Stats Elevation 440 ft / 134 m (AMSL)
Location 38.831043° -9.339654°
Runways 1
Magnetic Variation 2.435° W
Sunrise 2017-12-12 07:47:53 UTC / 2017-12-12 07:47:53 Local
Sunset 2017-12-12 17:17:11 UTC / 2017-12-12 17:17:11 Local
Advertisement - Login to hide

Runways

ID Width Length Bearing (true) Bearing (mag) Surface Threshold Offset Overrun Length
14 131 ft / 40 m 5,869 ft / 1,789 m 135.57° 138.01° Asphalt 0 ft / 0 m 0 ft / 0 m
32 131 ft / 40 m 5,869 ft / 1,789 m 315.58° 318.02° Asphalt 0 ft / 0 m 0 ft / 0 m

Map

Weather


0- 5 10 15 20 25 30 35+ Temperature / ° C

Clouds and Precipitation
Forecast for 2017-12-12 18:00 UTC. Updated an hour ago

Ground ~20,000 ft ~40,000 ft Winds

METAR

LPST 121700Z 33003KT 9999 FEW020 12/07 Q1023

TAF

Not found

Frequencies

Ground 122.10 MHz GND
Approach 118.60 MHz APP
Tower 119.85 MHz TWR
Warning: Do not use this data for real-world aviation or navigation. No guarantee of current accuracy is given.